createdAt,value
2018-07-02T00:00:29.339Z,47.10
2018-07-02T00:02:58.590Z,47.20
2018-07-02T00:06:40.032Z,47.50
2018-07-02T00:11:38.485Z,47.90
2018-07-02T00:14:07.771Z,48.20
2018-07-02T00:16:36.930Z,48.50
2018-07-02T00:19:06.174Z,48.80
2018-07-02T00:21:35.360Z,49.00
2018-07-02T00:24:04.624Z,49.90
2018-07-02T00:26:33.830Z,49.40
2018-07-02T00:29:03.015Z,49.60
2018-07-02T00:31:32.286Z,49.80
2018-07-02T00:34:01.490Z,49.80
2018-07-02T00:36:30.694Z,49.80
2018-07-02T00:38:59.825Z,50.10
2018-07-02T00:41:28.938Z,50.30
2018-07-02T00:43:58.274Z,50.60
2018-07-02T00:46:27.288Z,51.00
2018-07-02T00:48:56.419Z,51.10
2018-07-02T00:51:25.638Z,51.50
2018-07-02T00:53:54.914Z,51.80
2018-07-02T00:56:24.538Z,52.00
2018-07-02T00:58:53.818Z,52.20
2018-07-02T01:01:24.823Z,52.40
2018-07-02T01:03:54.339Z,52.60
2018-07-02T01:06:23.605Z,52.80
2018-07-02T01:08:52.974Z,53.10
2018-07-02T01:11:22.171Z,53.30
2018-07-02T01:13:52.054Z,53.40
2018-07-02T01:16:21.251Z,53.30
2018-07-02T01:18:51.167Z,53.40
2018-07-02T01:21:20.879Z,53.50
2018-07-02T01:23:50.076Z,53.60
2018-07-02T01:26:19.238Z,54.00
2018-07-02T01:28:48.520Z,54.30
2018-07-02T01:31:17.766Z,54.60
2018-07-02T01:33:46.928Z,55.00
2018-07-02T01:36:16.188Z,54.90
2018-07-02T01:38:45.346Z,54.90
2018-07-02T01:41:14.598Z,55.00
2018-07-02T01:43:43.771Z,55.20
2018-07-02T01:46:12.987Z,55.30
2018-07-02T01:48:42.207Z,55.30
2018-07-02T01:51:11.421Z,55.40
2018-07-02T01:53:40.599Z,55.70
2018-07-02T01:56:09.907Z,56.10
2018-07-02T01:58:39.170Z,56.30
2018-07-02T02:01:08.420Z,56.50
2018-07-02T02:03:37.629Z,56.40
2018-07-02T02:06:06.883Z,56.30
2018-07-02T02:08:36.048Z,56.30
2018-07-02T02:11:05.347Z,56.50
2018-07-02T02:13:34.511Z,56.80
2018-07-02T02:16:03.665Z,57.00
2018-07-02T02:18:32.889Z,57.10
2018-07-02T02:21:02.127Z,57.30
2018-07-02T02:23:31.319Z,57.50
2018-07-02T02:26:00.579Z,57.90
2018-07-02T02:28:29.781Z,58.00
2018-07-02T02:30:58.985Z,57.90
2018-07-02T02:33:28.239Z,57.90
2018-07-02T02:35:57.384Z,57.90
2018-07-02T02:38:26.685Z,58.00
2018-07-02T02:40:55.787Z,57.80
2018-07-02T02:43:25.004Z,57.80
2018-07-02T02:45:54.307Z,58.30
2018-07-02T02:48:23.588Z,58.50
2018-07-02T02:50:52.803Z,58.60
2018-07-02T02:53:22.052Z,58.70
2018-07-02T02:55:51.875Z,58.90
2018-07-02T02:58:21.112Z,59.00
2018-07-02T03:00:50.412Z,59.30
2018-07-02T03:03:19.934Z,59.50
2018-07-02T03:05:49.391Z,59.70
2018-07-02T03:08:18.656Z,59.80
2018-07-02T03:10:47.839Z,60.00
2018-07-02T03:13:17.042Z,60.20
2018-07-02T03:15:46.905Z,60.50
2018-07-02T03:18:16.043Z,60.90
2018-07-02T03:20:45.233Z,61.00
2018-07-02T03:23:14.424Z,61.10
2018-07-02T03:25:43.670Z,61.20
2018-07-02T03:28:12.898Z,61.40
2018-07-02T03:30:42.113Z,61.50
2018-07-02T03:33:11.386Z,62.60
2018-07-02T03:35:40.646Z,61.90
2018-07-02T03:38:09.951Z,62.20
2018-07-02T03:40:44.562Z,62.70
2018-07-02T03:43:15.347Z,63.00
2018-07-02T03:45:44.480Z,63.20
2018-07-02T03:48:13.627Z,63.20
2018-07-02T03:50:42.811Z,63.10
2018-07-02T03:53:12.091Z,63.10
2018-07-02T03:55:41.558Z,63.00
2018-07-02T03:58:14.378Z,63.20
2018-07-02T04:00:43.426Z,63.30
2018-07-02T04:03:13.252Z,63.60
2018-07-02T04:05:42.432Z,63.80
2018-07-02T04:08:11.665Z,64.20
2018-07-02T04:10:40.947Z,65.30
2018-07-02T04:13:10.187Z,64.60
2018-07-02T04:15:40.198Z,64.70
2018-07-02T04:18:09.430Z,64.80
2018-07-02T04:20:38.718Z,64.80
2018-07-02T04:23:07.877Z,65.80
2018-07-02T04:25:37.017Z,65.30
2018-07-02T04:28:06.212Z,65.40
2018-07-02T04:30:35.453Z,66.00
2018-07-02T04:33:04.739Z,65.90
2018-07-02T04:35:33.892Z,66.20
2018-07-02T04:38:03.023Z,66.10
2018-07-02T04:40:32.228Z,66.20
2018-07-02T04:43:01.495Z,66.10
2018-07-02T04:45:30.656Z,66.10
2018-07-02T04:47:59.879Z,66.30
2018-07-02T04:50:29.099Z,66.50
2018-07-02T04:52:58.299Z,66.50
2018-07-02T04:55:27.443Z,66.70
2018-07-02T04:57:56.659Z,66.90
2018-07-02T05:00:25.867Z,67.10
2018-07-02T05:02:55.100Z,67.30
2018-07-02T05:05:44.667Z,67.50
2018-07-02T05:08:14.039Z,67.50
2018-07-02T05:10:43.217Z,67.40
2018-07-02T05:13:12.369Z,67.40
2018-07-02T05:15:41.575Z,67.30
2018-07-02T05:21:15.783Z,67.20
2018-07-02T05:23:44.967Z,66.90
2018-07-02T05:26:14.102Z,66.60
2018-07-02T05:28:43.258Z,66.50
2018-07-02T05:31:12.431Z,66.10
2018-07-02T05:33:41.662Z,65.70
2018-07-02T05:36:11.011Z,65.40
2018-07-02T05:38:40.301Z,65.60
2018-07-02T05:41:09.936Z,64.40
2018-07-02T05:43:39.834Z,64.00
2018-07-02T05:46:09.398Z,63.50
2018-07-02T05:48:39.095Z,63.00
2018-07-02T05:51:08.862Z,62.40
2018-07-02T05:53:39.719Z,61.60
2018-07-02T05:56:09.603Z,61.10
2018-07-02T05:58:39.419Z,60.90
2018-07-02T06:01:09.208Z,60.00
2018-07-02T06:03:38.480Z,59.50
2018-07-02T06:06:07.695Z,59.20
2018-07-02T06:08:36.819Z,58.80
2018-07-02T06:11:08.095Z,58.00
2018-07-02T06:13:37.343Z,57.70
2018-07-02T06:16:06.519Z,57.10
2018-07-02T06:18:35.746Z,56.30
2018-07-02T06:21:05.106Z,55.90
2018-07-02T06:23:34.294Z,55.60
2018-07-02T06:26:03.571Z,55.10
2018-07-02T06:28:32.794Z,54.40
2018-07-02T06:31:02.019Z,54.00
2018-07-02T06:33:31.204Z,53.50
2018-07-02T06:36:00.697Z,52.70
2018-07-02T06:38:29.842Z,52.20
2018-07-02T06:40:59.006Z,51.80
2018-07-02T06:43:28.249Z,51.10
2018-07-02T06:45:57.519Z,50.50
2018-07-02T06:48:26.673Z,50.30
2018-07-02T06:50:55.888Z,50.20
2018-07-02T06:53:25.099Z,49.90
2018-07-02T06:55:54.249Z,49.60
2018-07-02T06:58:23.427Z,49.40
2018-07-02T07:00:52.646Z,48.90
2018-07-02T07:03:21.891Z,48.60
2018-07-02T07:05:51.023Z,49.10
2018-07-02T07:08:20.119Z,48.10
2018-07-02T07:10:49.244Z,47.80
2018-07-02T07:13:18.466Z,47.70
2018-07-02T07:15:47.784Z,47.30
2018-07-02T07:18:17.067Z,46.90
2018-07-02T07:20:46.388Z,46.60
2018-07-02T07:23:15.563Z,46.50
2018-07-02T07:25:45.019Z,46.10
2018-07-02T07:28:14.363Z,45.60
2018-07-02T07:30:43.595Z,45.30
2018-07-02T07:33:12.834Z,44.80
2018-07-02T07:35:42.055Z,44.90
2018-07-02T07:38:11.284Z,44.60
2018-07-02T07:40:40.871Z,44.40
2018-07-02T07:43:10.252Z,43.90
2018-07-02T07:45:39.414Z,43.60
2018-07-02T07:48:08.534Z,43.50
2018-07-02T07:50:37.771Z,43.40
2018-07-02T07:53:07.041Z,43.00
2018-07-02T07:55:36.253Z,42.70
2018-07-02T07:58:05.803Z,42.30
2018-07-02T08:00:35.353Z,41.90
2018-07-02T08:03:04.574Z,41.40
2018-07-02T08:05:33.874Z,41.10
2018-07-02T08:08:03.219Z,40.50
2018-07-02T08:10:32.521Z,40.20
2018-07-02T08:13:01.723Z,40.10
2018-07-02T08:15:30.956Z,40.20
2018-07-02T08:18:00.196Z,39.50
2018-07-02T08:20:29.460Z,39.60
2018-07-02T08:22:58.716Z,39.80
2018-07-02T08:25:27.938Z,39.80
2018-07-02T08:27:57.168Z,39.40
2018-07-02T08:30:26.320Z,39.00
2018-07-02T08:32:55.548Z,38.90
2018-07-02T08:35:24.747Z,38.90
2018-07-02T08:37:54.080Z,38.50
2018-07-02T08:40:23.302Z,38.40
2018-07-02T08:42:52.555Z,38.20
2018-07-02T08:45:21.731Z,38.00
2018-07-02T08:47:50.923Z,37.70
2018-07-02T08:50:20.148Z,37.60
2018-07-02T08:52:49.436Z,37.40
2018-07-02T08:55:18.501Z,36.70
2018-07-02T08:57:47.606Z,36.20
2018-07-02T09:00:16.807Z,36.00
2018-07-02T09:02:46.056Z,36.00
2018-07-02T09:05:15.232Z,35.90
2018-07-02T09:07:44.499Z,35.30
2018-07-02T09:10:29.548Z,35.20
2018-07-02T09:12:58.799Z,35.10
2018-07-02T09:15:28.893Z,35.30
2018-07-02T09:17:58.075Z,35.00
2018-07-02T09:20:27.596Z,35.20
2018-07-02T09:22:57.667Z,35.20
2018-07-02T09:25:27.424Z,35.10
2018-07-02T09:27:57.276Z,35.50
2018-07-02T09:30:31.067Z,35.90
2018-07-02T09:33:00.648Z,36.00
2018-07-02T09:35:29.856Z,36.20
2018-07-02T09:38:12.577Z,35.90
2018-07-02T09:43:41.811Z,35.90
2018-07-02T09:46:11.924Z,36.00
2018-07-02T09:48:47.964Z,35.90
2018-07-02T09:51:17.140Z,35.80
2018-07-02T10:02:38.746Z,35.40
2018-07-02T10:05:08.068Z,35.10
2018-07-02T10:07:37.287Z,35.20
2018-07-02T10:10:06.536Z,35.20
2018-07-02T10:12:35.840Z,35.20
2018-07-02T10:15:05.749Z,34.70
2018-07-02T10:17:34.962Z,34.70
2018-07-02T10:20:04.431Z,35.10
2018-07-02T10:22:33.713Z,34.30
2018-07-02T10:25:03.275Z,34.80
2018-07-02T10:27:32.487Z,34.70
2018-07-02T10:30:01.762Z,34.30
2018-07-02T10:32:30.947Z,34.10
2018-07-02T10:35:00.257Z,34.10
2018-07-02T10:37:29.549Z,34.20
2018-07-02T10:39:59.379Z,33.80
2018-07-02T10:42:28.579Z,33.50
2018-07-02T10:44:57.898Z,33.30
2018-07-02T10:47:27.115Z,33.30
2018-07-02T10:49:56.376Z,33.40
2018-07-02T10:52:25.578Z,33.00
2018-07-02T10:54:54.840Z,32.60
2018-07-02T10:57:24.051Z,32.30
2018-07-02T10:59:53.292Z,32.20
2018-07-02T11:02:22.575Z,32.20
2018-07-02T11:04:51.876Z,32.00
2018-07-02T11:07:21.155Z,31.90
2018-07-02T11:09:50.411Z,32.00
2018-07-02T11:12:19.805Z,32.60
2018-07-02T11:14:49.984Z,31.70
2018-07-02T11:17:20.273Z,31.80
2018-07-02T11:19:50.051Z,32.30
2018-07-02T11:22:19.601Z,31.20
2018-07-02T11:24:48.852Z,30.90
2018-07-02T11:27:19.934Z,30.70
2018-07-02T11:29:49.856Z,30.20
2018-07-02T11:32:19.137Z,30.30
2018-07-02T11:34:48.916Z,30.30
2018-07-02T11:37:18.691Z,30.30
2018-07-02T11:39:48.011Z,30.10
2018-07-02T11:42:17.372Z,29.90
2018-07-02T11:44:46.672Z,30.20
2018-07-02T11:47:16.430Z,30.20
2018-07-02T11:49:46.332Z,30.00
2018-07-02T11:52:15.655Z,29.80
2018-07-02T11:54:46.302Z,29.80
2018-07-02T11:57:16.054Z,30.00
2018-07-02T11:59:45.264Z,30.50
2018-07-02T12:02:14.523Z,30.10
2018-07-02T12:04:43.731Z,30.30
2018-07-02T12:07:12.890Z,30.40
2018-07-02T12:09:42.099Z,29.80
2018-07-02T12:12:11.368Z,29.80
2018-07-02T12:14:40.560Z,29.70
2018-07-02T12:17:09.889Z,29.60
2018-07-02T12:19:39.008Z,29.60
2018-07-02T12:22:08.139Z,29.60
2018-07-02T12:24:37.396Z,30.00
2018-07-02T12:27:06.697Z,29.40
2018-07-02T12:29:35.887Z,29.20
2018-07-02T12:32:05.121Z,29.20
2018-07-02T12:34:34.335Z,29.00
2018-07-02T12:37:03.656Z,28.80
2018-07-02T12:39:32.864Z,28.40
2018-07-02T12:42:02.086Z,28.20
2018-07-02T12:44:31.275Z,28.00
2018-07-02T12:47:00.436Z,27.60
2018-07-02T12:49:29.639Z,27.30
2018-07-02T12:51:58.851Z,27.30
2018-07-02T12:54:28.160Z,27.20
2018-07-02T12:56:57.347Z,27.60
2018-07-02T12:59:26.589Z,26.90
2018-07-02T13:01:56.048Z,26.80
2018-07-02T13:04:25.270Z,26.90
2018-07-02T13:06:54.646Z,26.90
2018-07-02T13:12:34.878Z,26.50
2018-07-02T13:15:04.165Z,26.20
2018-07-02T13:17:33.447Z,26.30
2018-07-02T13:20:02.748Z,26.30
2018-07-02T13:22:32.095Z,26.20
2018-07-02T13:25:01.291Z,26.10
2018-07-02T13:27:30.498Z,26.20
2018-07-02T13:29:59.738Z,26.50
2018-07-02T13:32:29.028Z,26.50
2018-07-02T13:34:58.212Z,26.50
2018-07-02T13:37:27.472Z,26.50
2018-07-02T13:39:56.775Z,26.40
2018-07-02T13:42:25.928Z,26.70
2018-07-02T13:44:55.131Z,26.40
2018-07-02T13:47:24.375Z,26.20
2018-07-02T13:49:53.639Z,26.10
2018-07-02T13:52:22.867Z,26.00
2018-07-02T13:54:52.075Z,26.10
2018-07-02T13:57:21.384Z,26.00
2018-07-02T13:59:50.591Z,25.80
2018-07-02T14:02:20.190Z,25.70
2018-07-02T14:04:49.791Z,25.70
2018-07-02T14:07:18.964Z,25.50
2018-07-02T14:09:48.206Z,25.70
2018-07-02T14:12:17.518Z,25.60
2018-07-02T14:14:46.905Z,25.80
2018-07-02T14:17:16.104Z,25.30
2018-07-02T14:19:45.337Z,25.40
2018-07-02T14:22:14.511Z,25.60
2018-07-02T14:24:43.731Z,25.70
2018-07-02T14:27:13.048Z,25.70
2018-07-02T14:29:42.195Z,25.50
2018-07-02T14:32:11.461Z,25.60
2018-07-02T14:34:40.699Z,25.50
2018-07-02T14:37:09.943Z,25.20
2018-07-02T14:39:39.240Z,25.50
2018-07-02T14:42:08.569Z,25.40
2018-07-02T14:44:37.832Z,25.20
2018-07-02T14:47:07.526Z,25.10
2018-07-02T14:49:36.800Z,25.00
2018-07-02T14:52:06.076Z,25.10
2018-07-02T14:54:35.304Z,25.20
2018-07-02T14:57:04.595Z,25.20
2018-07-02T14:59:33.800Z,25.20
2018-07-02T15:02:03.069Z,25.50
2018-07-02T15:04:32.332Z,25.50
2018-07-02T15:07:01.552Z,25.20
2018-07-02T15:09:30.846Z,25.30
2018-07-02T15:12:00.082Z,25.30
2018-07-02T15:14:29.248Z,25.40
2018-07-02T15:16:58.395Z,25.50
2018-07-02T15:19:27.446Z,25.60
2018-07-02T15:21:56.532Z,26.00
2018-07-02T15:24:25.890Z,25.50
2018-07-02T15:26:55.167Z,25.10
2018-07-02T15:29:24.524Z,25.50
2018-07-02T15:31:53.811Z,25.60
2018-07-02T15:34:23.037Z,26.30
2018-07-02T15:39:21.020Z,25.70
2018-07-02T15:41:50.357Z,26.00
2018-07-02T15:44:19.498Z,26.00
2018-07-02T15:46:48.831Z,26.10
2018-07-02T15:49:18.092Z,26.00
2018-07-02T15:51:47.386Z,26.20
2018-07-02T15:54:16.640Z,26.30
2018-07-02T15:56:46.012Z,26.10
2018-07-02T15:59:15.219Z,26.00
2018-07-02T16:01:44.474Z,26.00
2018-07-02T16:04:13.663Z,26.20
2018-07-02T16:06:42.923Z,26.60
2018-07-02T16:09:12.748Z,26.70
2018-07-02T16:11:41.966Z,26.70
2018-07-02T16:14:11.196Z,26.50
2018-07-02T16:16:40.431Z,26.60
2018-07-02T16:19:09.656Z,27.20
2018-07-02T16:21:39.048Z,27.10
2018-07-02T16:24:09.346Z,27.60
2018-07-02T16:26:38.567Z,27.70
2018-07-02T16:29:23.037Z,27.40
2018-07-02T16:31:53.235Z,27.20
2018-07-02T16:34:23.867Z,27.00
2018-07-02T16:36:53.107Z,26.80
2018-07-02T16:39:22.307Z,27.10
2018-07-02T16:41:51.604Z,27.90
2018-07-02T16:44:20.853Z,27.80
2018-07-02T16:46:50.099Z,28.30
2018-07-02T16:49:43.731Z,28.30
2018-07-02T16:52:13.007Z,28.40
2018-07-02T16:54:42.344Z,27.40
2018-07-02T16:57:11.655Z,27.70
2018-07-02T16:59:40.947Z,28.60
2018-07-02T17:02:10.231Z,28.60
2018-07-02T17:04:39.513Z,29.00
2018-07-02T17:09:38.108Z,30.00
2018-07-02T17:12:08.032Z,29.70
2018-07-02T17:14:37.742Z,29.10
2018-07-02T17:17:10.898Z,28.50
2018-07-02T17:19:46.473Z,28.60
2018-07-02T17:22:15.819Z,29.30
2018-07-02T17:24:45.534Z,29.90
2018-07-02T17:27:14.839Z,29.60
2018-07-02T17:29:44.027Z,29.20
2018-07-02T17:32:13.260Z,29.10
2018-07-02T17:34:50.817Z,29.50
2018-07-02T17:37:20.183Z,29.90
2018-07-02T17:39:49.990Z,29.90
2018-07-02T17:42:19.352Z,30.50
2018-07-02T17:44:49.127Z,30.90
2018-07-02T17:47:18.458Z,30.10
2018-07-02T17:49:48.060Z,29.80
2018-07-02T17:52:17.323Z,30.00
2018-07-02T17:54:47.511Z,30.50
2018-07-02T17:57:16.787Z,30.20
2018-07-02T17:59:46.343Z,30.00
2018-07-02T18:05:08.807Z,30.50
2018-07-02T18:07:41.894Z,30.70
2018-07-02T18:10:11.134Z,32.40
2018-07-02T18:12:40.416Z,33.10
2018-07-02T18:15:10.887Z,34.10
2018-07-02T18:17:40.836Z,34.50
2018-07-02T18:20:10.197Z,34.30
2018-07-02T18:22:39.462Z,34.70
2018-07-02T18:25:08.872Z,35.20
2018-07-02T18:27:38.048Z,35.80
2018-07-02T18:30:07.572Z,36.00
2018-07-02T18:32:36.799Z,36.50
2018-07-02T18:35:06.053Z,36.70
2018-07-02T18:37:35.372Z,36.90
2018-07-02T18:40:05.220Z,37.20
2018-07-02T18:42:34.752Z,37.50
2018-07-02T18:45:07.142Z,37.70
2018-07-02T18:47:36.775Z,37.90
2018-07-02T18:50:06.796Z,38.20
2018-07-02T18:52:36.056Z,38.10
2018-07-02T18:55:05.564Z,38.20
2018-07-02T18:57:36.078Z,38.40
2018-07-02T19:00:05.983Z,38.80
2018-07-02T19:02:38.487Z,39.00
2018-07-02T19:05:08.347Z,39.00
2018-07-02T19:07:39.549Z,38.90
2018-07-02T19:10:09.599Z,39.20
2018-07-02T19:12:38.746Z,39.40
2018-07-02T19:18:19.399Z,39.90
2018-07-02T19:20:48.904Z,40.30
2018-07-02T19:34:51.484Z,40.30
2018-07-02T19:37:21.108Z,40.20
2018-07-02T19:39:50.452Z,40.20
2018-07-02T19:42:21.395Z,40.40
2018-07-02T19:44:50.791Z,40.40
2018-07-02T19:47:20.263Z,40.80
2018-07-02T19:49:50.976Z,41.20
2018-07-02T19:52:20.145Z,41.40
2018-07-02T19:54:49.356Z,41.40
2018-07-02T20:00:33.175Z,41.20
2018-07-02T20:03:02.818Z,41.40
2018-07-02T20:05:32.040Z,41.90
2018-07-02T20:08:01.325Z,41.80
2018-07-02T20:10:30.562Z,41.70
2018-07-02T20:12:59.772Z,41.70
2018-07-02T20:15:29.000Z,41.90
2018-07-02T20:17:58.226Z,42.20
2018-07-02T20:20:27.465Z,42.50
2018-07-02T20:22:56.628Z,42.70
2018-07-02T20:25:26.679Z,42.50
2018-07-02T20:27:55.927Z,42.70
2018-07-02T20:30:25.207Z,43.10
2018-07-02T20:32:54.452Z,43.40
2018-07-02T20:35:23.897Z,43.40
2018-07-02T20:37:53.417Z,43.50
2018-07-02T20:40:22.740Z,43.80
2018-07-02T20:42:51.979Z,43.80
2018-07-02T20:45:21.253Z,44.00
2018-07-02T20:47:50.818Z,44.40
2018-07-02T20:50:21.368Z,44.60
2018-07-02T20:52:52.817Z,44.60
2018-07-02T20:55:22.139Z,44.50
2018-07-02T20:57:51.403Z,44.60
2018-07-02T21:00:20.661Z,44.80
2018-07-02T21:02:49.933Z,45.10
2018-07-02T21:05:19.151Z,45.30
2018-07-02T21:07:50.348Z,45.10
2018-07-02T21:12:48.391Z,45.20
2018-07-02T21:15:18.237Z,45.20
2018-07-02T21:17:47.556Z,45.60
2018-07-02T21:20:16.902Z,46.60
2018-07-02T21:22:45.967Z,46.30
2018-07-02T21:25:15.224Z,46.30
2018-07-02T21:27:44.507Z,46.40
2018-07-02T21:30:13.647Z,46.70
2018-07-02T21:32:42.888Z,46.80
2018-07-02T21:35:12.141Z,46.80
2018-07-02T21:37:58.115Z,46.80
2018-07-02T21:40:29.376Z,47.40
2018-07-02T21:42:58.780Z,46.70
2018-07-02T21:45:28.115Z,46.60
2018-07-02T21:47:57.327Z,46.50
2018-07-02T21:50:26.540Z,46.50
2018-07-02T21:52:55.938Z,46.70
2018-07-02T21:55:25.166Z,46.90
2018-07-02T21:57:54.389Z,46.90
2018-07-02T22:00:23.685Z,46.70
2018-07-02T22:02:53.067Z,46.90
2018-07-02T22:05:22.332Z,47.10
2018-07-02T22:07:51.636Z,47.20
2018-07-02T22:10:20.860Z,47.20
2018-07-02T22:12:50.100Z,47.30
2018-07-02T22:15:19.316Z,47.50
2018-07-02T22:17:48.542Z,47.60
2018-07-02T22:20:17.755Z,47.70
2018-07-02T22:25:15.736Z,47.40
2018-07-02T22:27:44.929Z,47.40
2018-07-02T22:30:14.228Z,47.30
2018-07-02T22:32:43.434Z,47.50
2018-07-02T22:35:12.599Z,47.70
2018-07-02T22:37:41.911Z,47.80
2018-07-02T22:40:11.123Z,47.70
2018-07-02T22:42:40.342Z,47.60
2018-07-02T22:45:09.597Z,48.40
2018-07-02T22:47:38.763Z,48.20
2018-07-02T22:50:07.986Z,48.40
2018-07-02T22:52:37.196Z,48.60
2018-07-02T22:55:06.475Z,48.60
2018-07-02T22:57:35.771Z,48.60
2018-07-02T23:00:05.569Z,48.70
2018-07-02T23:02:35.163Z,48.90
2018-07-02T23:05:04.487Z,49.00
2018-07-02T23:07:33.749Z,49.20
2018-07-02T23:10:03.018Z,49.20
2018-07-02T23:12:32.260Z,49.40
2018-07-02T23:15:01.453Z,49.30
2018-07-02T23:17:30.660Z,49.30
2018-07-02T23:19:59.863Z,49.60
2018-07-02T23:22:39.508Z,49.70
2018-07-02T23:25:08.666Z,49.70
2018-07-02T23:27:37.818Z,49.80
2018-07-02T23:30:06.987Z,50.00
2018-07-02T23:32:36.189Z,50.10
2018-07-02T23:35:05.480Z,50.00
2018-07-02T23:37:34.776Z,50.20
2018-07-02T23:40:04.203Z,50.30
2018-07-02T23:42:33.380Z,50.30
2018-07-02T23:45:02.596Z,50.30
2018-07-02T23:47:31.850Z,50.20
2018-07-02T23:50:01.007Z,50.60
2018-07-02T23:52:30.149Z,50.50
2018-07-02T23:54:59.300Z,50.90
2018-07-02T23:57:28.657Z,51.10
2018-07-02T23:59:57.870Z,51.30
